Fontana Observed Data For Previous 48 Hours

Caption
Day and Hour Reservoir Elevation (behind dam)* Tailwater Elevation (below dam)* Average Hourly Discharge*
12/9/2017 2 AM EST 1,654.22 1,273.83 0
12/9/2017 3 AM EST 1,654.22 1,273.74 0
12/9/2017 4 AM EST 1,654.23 1,275.22 135
12/9/2017 5 AM EST 1,654.26 1,277.16 3,083
12/9/2017 6 AM EST 1,654.22 1,277.26 3,116
12/9/2017 7 AM EST 1,654.20 1,277.56 3,235
12/9/2017 8 AM EST 1,654.16 1,281.22 8,079
12/9/2017 9 AM EST 1,654.08 1,281.19 9,689
12/9/2017 10 AM EST 1,654.00 1,281.07 9,014
12/9/2017 11 AM EST 1,653.93 1,281.27 9,077
12/9/2017 12 PM EST 1,653.89 1,277.15 3,318
12/9/2017 1 PM EST 1,653.92 1,277.33 3,164
12/9/2017 2 PM EST 1,653.92 1,275.79 138
12/9/2017 3 PM EST 1,653.93 1,275.61 0
12/9/2017 4 PM EST 1,653.96 1,275.03 0
12/9/2017 5 PM EST 1,653.97 1,273.97 0
12/9/2017 6 PM EST 1,654.00 1,275.03 140
12/9/2017 7 PM EST 1,653.99 1,277.60 3,148
12/9/2017 8 PM EST 1,653.93 1,281.01 8,625
12/9/2017 9 PM EST 1,653.84 1,281.25 8,922
12/9/2017 10 PM EST 1,653.76 1,281.12 9,259
12/9/2017 11 PM EST 1,653.76 1,277.20 3,375
12/10/2017 12 AM EST 1,653.77 1,277.04 3,086
12/10/2017 1 AM EST 1,653.77 1,275.09 122
12/10/2017 2 AM EST 1,653.78 1,274.96 0
12/10/2017 3 AM EST 1,653.82 1,274.82 0
12/10/2017 4 AM EST 1,653.85 1,273.99 0
12/10/2017 5 AM EST 1,653.84 1,275.10 134
12/10/2017 6 AM EST 1,653.85 1,277.13 3,061
12/10/2017 7 AM EST 1,653.85 1,277.07 3,063
12/10/2017 8 AM EST 1,653.78 1,281.34 7,519
12/10/2017 9 AM EST 1,653.69 1,281.32 9,546
12/10/2017 10 AM EST 1,653.65 1,280.95 9,042
12/10/2017 11 AM EST 1,653.57 1,281.02 8,845
12/10/2017 12 PM EST 1,653.49 1,281.17 9,102
12/10/2017 1 PM EST 1,653.47 1,277.05 3,333
12/10/2017 2 PM EST 1,653.50 1,273.76 147
12/10/2017 3 PM EST 1,653.53 1,273.64 0
12/10/2017 4 PM EST 1,653.53 1,273.53 0
12/10/2017 5 PM EST 1,653.56 1,273.47 0
12/10/2017 6 PM EST 1,653.58 1,277.37 2,039
12/10/2017 7 PM EST 1,653.56 1,277.65 3,226
12/10/2017 8 PM EST 1,653.51 1,281.06 8,368
12/10/2017 9 PM EST 1,653.41 1,280.72 8,701
12/10/2017 10 PM EST 1,653.31 1,280.97 8,902
12/10/2017 11 PM EST 1,653.31 1,277.08 3,328
12/11/2017 12 AM EST 1,653.34 1,274.35 160

Elevations are in feet above sea level. Discharges are in cubic feet per second and are reported at the end of the hour.